DW1549 Fauske NO current weather conditions

sailwx.info

Wind from 110

Air temperature 7.8° C
Dewpoint 1.8° C

Last reported at 2016-May-06 02:33 UTC.
Time now 2016-May-06 03:36 UTC

Location: N 67°16' E 015°25'.
View on Google Maps.

See reports from other nearby stations

  
Tides and Currents Weather Stations Pressure Air Temp Water Temp Dewpoint Dewpoint Depression Visibility Wind Speed Wind Dir Waves Ship Positions
date/time (UTC)wind fromknots sea level pressurealtimeterstation pressurevisibilityair tempwater tempwave heightnotes
2016-May-06 02:33 110 7.8
2016-May-06 02:23 110 7.8
2016-May-06 02:13 110 7.8
2016-May-06 02:03 110 7.8
2016-May-06 01:53 110 8.3
2016-May-06 01:23 068 0 gusting 2 8.3
2016-May-06 01:03 068 8.3
2016-May-06 00:53 069 8.3
2016-May-06 00:43 069 8.3
2016-May-06 00:33 062 4 gusting 7 8.3
2016-May-06 00:13 080 0 gusting 2 8.3
2016-May-06 00:03 080 2 gusting 7 8.3
2016-May-05 23:53 136 8.3
2016-May-05 23:43 136 8.3
2016-May-05 23:33 136 8.3
2016-May-05 23:23 136 8.3
2016-May-05 23:13 136 0 gusting 2 8.3
2016-May-05 23:03 136 7.8
2016-May-05 22:53 136 0 gusting 2 7.8
2016-May-05 22:43 136 7.8
2016-May-05 22:33 136 7.8
2016-May-05 22:23 136 7.8
2016-May-05 22:13 136 7.8
2016-May-05 21:43 138 2 gusting 4 8.3
2016-May-05 21:13 137 2 gusting 4 8.3
2016-May-05 20:23 137 8.9
2016-May-05 20:13 137 9.4
2016-May-05 20:03 137 9.4
2016-May-05 19:53 137 9.4
2016-May-05 19:43 137 10.0
2016-May-05 19:33 137 1 gusting 2 10.0
2016-May-05 19:13 141 2 gusting 2 10.6
2016-May-05 18:53 143 11.1
2016-May-05 18:43 143 11.1
2016-May-05 18:23 135 11.7
2016-May-05 18:13 135 0 gusting 5 11.7
2016-May-05 18:03 129 2 gusting 6 11.7
2016-May-05 17:53 128 1 gusting 6 11.7
2016-May-05 17:43 128 1 gusting 6 12.2
2016-May-05 17:33 128 4 gusting 6 12.2
2016-May-05 17:23 128 2 gusting 5 12.8
2016-May-05 17:13 128 4 gusting 8 12.8
2016-May-05 16:53 128 5 gusting 10 12.2
2016-May-05 16:43 128 6 gusting 10 12.8
2016-May-05 16:33 120 5 gusting 8 12.8
2016-May-05 16:23 122 5 gusting 8 12.8
2016-May-05 16:13 128 3 gusting 10 12.8
2016-May-05 16:03 124 4 gusting 11 12.8
2016-May-05 15:23 124 7 gusting 10 12.8
2016-May-05 15:03 219 0 gusting 2 12.2
2016-May-05 14:43 227 2 gusting 6 12.2
2016-May-05 14:33 244 2 gusting 6 12.8
2016-May-05 14:23 224 2 gusting 7 12.8
2016-May-05 13:53 212 2 gusting 7 12.2
2016-May-05 13:33 224 2 gusting 8 12.8
2016-May-05 13:23 220 3 gusting 6 12.8
2016-May-05 13:13 207 2 gusting 6 13.3
2016-May-05 13:03 200 4 gusting 8 13.3
2016-May-05 12:53 206 4 gusting 10 13.3
2016-May-05 12:43 229 2 gusting 7 13.3
2016-May-05 12:33 225 2 gusting 8 13.9
2016-May-05 12:23 221 3 gusting 10 13.9
2016-May-05 12:13 212 3 gusting 8 13.9
2016-May-05 12:03 219 2 gusting 8 13.9
2016-May-05 11:53 210 4 gusting 10 13.3
2016-May-05 11:43 213 2 gusting 8 13.3
2016-May-05 11:13 224 4 gusting 10 13.3
2016-May-05 11:03 207 4 gusting 10 13.9
2016-May-05 10:23 214 5 gusting 10 13.9
2016-May-05 10:13 203 4 gusting 10 13.9
2016-May-05 09:53 142 5 gusting 12 13.9
2016-May-05 09:33 143 5 gusting 10 13.9
2016-May-05 09:23 130 8 gusting 13 13.3
2016-May-05 09:13 168 4 gusting 11 12.8
2016-May-05 08:53 162 6 gusting 11 12.2
2016-May-05 08:43 147 6 gusting 12 12.2
2016-May-05 08:23 135 7 gusting 10 12.2
2016-May-05 08:13 141 4 gusting 10 11.7
2016-May-05 08:03 135 6 gusting 11 11.1
2016-May-05 07:43 144 7 gusting 12 11.1
2016-May-05 07:33 133 6 gusting 12 10.6
2016-May-05 07:23 148 6 gusting 10 10.0
2016-May-05 07:03 130 7 gusting 11 10.0
2016-May-05 06:53 145 5 gusting 11 10.0
2016-May-05 06:43 132 5 gusting 12 10.0
2016-May-05 06:33 138 7 gusting 13 10.0
2016-May-05 06:23 121 6 gusting 12 10.0
2016-May-05 06:13 119 6 gusting 13 9.4
2016-May-05 06:03 124 8 gusting 14 8.9
2016-May-05 05:53 134 6 gusting 10 8.9
2016-May-05 05:43 147 5 gusting 13 8.3
2016-May-05 05:33 153 7 gusting 11 8.3
2016-May-05 05:23 145 6 gusting 12 7.8
2016-May-05 04:33 123 3 gusting 7 7.2
2016-May-05 04:03 134 3 gusting 6 7.2
2016-May-05 03:43 136 7 gusting 13 7.2
2016-May-05 03:23 145 5 gusting 8 6.7
2016-May-05 02:33 140 6 gusting 8 6.1
2016-May-05 02:23 143 4 gusting 7 6.1
2016-May-05 02:03 142 4 gusting 8 6.1
2016-May-05 01:33 136 4 gusting 6 5.6
2016-May-05 01:23 123 4 gusting 8 5.6
2016-May-05 01:13 119 2 gusting 6 5.0
2016-May-05 01:03 122 5.6
2016-May-05 00:53 122 6.1
2016-May-05 00:43 122 3 gusting 7 6.1
2016-May-05 00:33 121 5 gusting 8 6.1
2016-May-05 00:23 119 4 gusting 8 6.1
2016-May-05 00:13 115 0 gusting 5 5.6
2016-May-04 23:33 193 6.1
2016-May-04 23:13 193 7.2
2016-May-04 23:03 193 7.2
2016-May-04 22:53 192 0 gusting 4 7.2
2016-May-04 22:33 186 1 gusting 7 7.8
2016-May-04 22:13 173 0 gusting 4 7.8
2016-May-04 22:03 173 3 gusting 7 7.8
2016-May-04 21:53 171 2 gusting 6 7.8
2016-May-04 21:43 189 2 gusting 6 7.8
2016-May-04 21:13 178 4 gusting 10 7.8
2016-May-04 21:03 167 6 gusting 10 7.8
2016-May-04 20:53 163 2 gusting 7 7.8
2016-May-04 20:43 158 4 gusting 8 7.8
2016-May-04 20:33 164 2 gusting 6 7.2
2016-May-04 20:23 158 7.8
2016-May-04 20:03 158 2 gusting 6 7.8
2016-May-04 19:53 172 3 gusting 6 8.3
2016-May-04 19:33 175 4 gusting 10 8.3
2016-May-04 19:23 171 5 gusting 8 8.3
2016-May-04 18:53 242 8.9
2016-May-04 18:33 242 8.9
2016-May-04 18:23 242 8.9
2016-May-04 18:03 242 8.9
2016-May-04 17:53 242 9.4
2016-May-04 17:43 242 9.4
2016-May-04 17:23 242 9.4
2016-May-04 17:03 232 0 gusting 6 9.4
2016-May-04 16:53 261 1 gusting 6 10.0
2016-May-04 16:43 217 10.0
2016-May-04 16:33 201 2 gusting 8 9.4
2016-May-04 16:23 197 2 gusting 7 10.0
2016-May-04 16:13 202 0 gusting 5 10.6
2016-May-04 16:03 240 0 gusting 5 10.6
2016-May-04 15:53 203 1 gusting 8 10.6
2016-May-04 15:33 206 2 gusting 10 10.6
2016-May-04 15:23 197 2 gusting 6 10.6
2016-May-04 15:13 198 0 gusting 7 10.6
2016-May-04 15:03 193 4 gusting 10 10.6
2016-May-04 14:53 189 5 gusting 10 10.6
2016-May-04 14:43 195 4 gusting 8 11.1
2016-May-04 14:33 202 2 gusting 8 11.1
2016-May-04 14:03 195 0 gusting 4 13.3
2016-May-04 13:53 126 0 gusting 2 12.2
2016-May-04 13:43 126 12.8
2016-May-04 13:33 126 12.2
2016-May-04 13:23 126 11.7
2016-May-04 13:03 126 1 gusting 2 12.2
2016-May-04 12:53 126 11.7
2016-May-04 12:43 126 11.7
2016-May-04 12:33 126 0 gusting 2 10.6
2016-May-04 12:23 126 10.0
2016-May-04 12:13 126 2 gusting 7 10.0
2016-May-04 12:03 126 2 gusting 8 10.6
2016-May-04 11:43 134 4 gusting 7 10.0
2016-May-04 11:33 134 5 gusting 8 10.6
2016-May-04 11:03 145 4 gusting 8 10.0
2016-May-04 10:43 122 6 gusting 10 10.0
2016-May-04 10:33 123 5 gusting 8 9.4
2016-May-04 10:03 139 4 gusting 10 8.9
2016-May-04 09:53 127 3 gusting 6 8.3
2016-May-04 09:43 126 4 gusting 8 7.8
2016-May-04 09:33 115 3 gusting 7 7.2
2016-May-04 09:03 145 2 gusting 4 6.1
2016-May-04 08:33 145 2 gusting 5 6.1
2016-May-04 08:23 148 4 gusting 5 6.1
2016-May-04 08:13 207 0 gusting 2 6.1
2016-May-04 08:03 234 6.1
2016-May-04 07:53 234 6.1
2016-May-04 07:43 234 6.1
2016-May-04 07:33 234 6.1
2016-May-04 07:23 234 6.1
2016-May-04 07:13 232 6.1
2016-May-04 07:03 233 6.1
2016-May-04 06:43 299 6.1
2016-May-04 06:23 024 6.1
2016-May-04 06:13 240 6.1
2016-May-04 06:03 306 0 gusting 12 6.7
2016-May-04 05:43 260 2 gusting 11 7.2
2016-May-04 05:33 250 1 gusting 8 7.8
2016-May-04 05:23 302 1 gusting 6 7.8
2016-May-04 05:13 217 7.8
2016-May-04 04:53 250 0 gusting 8 7.8
2016-May-04 04:43 248 1 gusting 10 8.3
2016-May-04 04:23 262 4 gusting 8 8.3
2016-May-04 04:13 247 2 gusting 7 8.3
2016-May-04 04:03 232 1 gusting 10 8.3
2016-May-04 03:53 277 3 gusting 10 8.3
2016-May-04 03:33 299 0 gusting 10 8.3
2016-May-04 03:23 218 0 gusting 7 8.3
2016-May-04 03:13 250 6 gusting 12 8.9
2016-May-04 03:03 245 8.9